createdAt,value
2023-03-15T00:00:55.275Z,60.32
2023-03-15T00:03:23.837Z,60.29
2023-03-15T00:05:51.986Z,60.14
2023-03-15T00:08:19.109Z,60.07
2023-03-15T00:10:47.702Z,59.84
2023-03-15T00:13:17.297Z,59.98
2023-03-15T00:15:53.699Z,59.96
2023-03-15T00:18:27.930Z,60.13
2023-03-15T00:20:55.105Z,60.31
2023-03-15T00:23:21.825Z,60.53
2023-03-15T00:25:51.614Z,60.53
2023-03-15T00:28:18.766Z,60.70
2023-03-15T00:30:46.010Z,60.76
2023-03-15T00:33:14.693Z,60.71
2023-03-15T00:35:44.522Z,60.73
2023-03-15T00:38:13.101Z,60.96
2023-03-15T00:40:39.940Z,61.11
2023-03-15T00:43:06.545Z,60.99
2023-03-15T00:45:33.085Z,60.88
2023-03-15T00:47:59.939Z,60.82
2023-03-15T00:50:26.741Z,60.80
2023-03-15T00:52:53.202Z,60.78
2023-03-15T00:55:21.124Z,60.78
2023-03-15T00:57:47.636Z,60.40
2023-03-15T01:00:24.015Z,60.32
2023-03-15T01:02:55.469Z,60.10
2023-03-15T01:05:22.611Z,60.17
2023-03-15T01:07:49.474Z,59.98
2023-03-15T01:10:16.916Z,60.18
2023-03-15T01:12:45.323Z,60.03
2023-03-15T01:15:15.198Z,60.00
2023-03-15T01:17:42.549Z,60.10
2023-03-15T01:20:13.758Z,60.19
2023-03-15T01:22:40.576Z,60.22
2023-03-15T01:25:08.740Z,60.21
2023-03-15T01:27:35.365Z,60.27
2023-03-15T01:30:01.962Z,60.30
2023-03-15T01:32:29.816Z,60.41
2023-03-15T01:34:57.067Z,60.36
2023-03-15T01:37:24.071Z,60.35
2023-03-15T01:39:51.275Z,60.13
2023-03-15T01:42:17.811Z,60.06
2023-03-15T01:44:59.396Z,60.25
2023-03-15T01:47:27.265Z,60.45
2023-03-15T01:50:10.901Z,60.33
2023-03-15T01:52:42.280Z,60.42
2023-03-15T01:55:13.721Z,60.37
2023-03-15T01:57:57.452Z,60.16
2023-03-15T02:00:24.385Z,60.10
2023-03-15T02:03:17.104Z,59.89
2023-03-15T02:05:54.204Z,59.80
2023-03-15T02:08:26.197Z,59.91
2023-03-15T02:11:00.796Z,59.80
2023-03-15T02:13:30.569Z,58.99
2023-03-15T02:15:57.068Z,60.60
2023-03-15T02:18:23.999Z,63.26
2023-03-15T02:21:02.539Z,65.62
2023-03-15T02:23:31.415Z,64.84
2023-03-15T02:26:15.308Z,62.46
2023-03-15T02:28:43.185Z,61.25
2023-03-15T02:31:10.284Z,61.18
2023-03-15T02:33:44.925Z,59.82
2023-03-15T02:36:21.639Z,59.97
2023-03-15T02:38:50.154Z,59.84
2023-03-15T02:41:41.878Z,58.53
2023-03-15T02:44:17.036Z,58.23
2023-03-15T02:46:49.185Z,61.38
2023-03-15T02:49:18.922Z,65.18
2023-03-15T02:51:45.466Z,64.61
2023-03-15T02:54:11.982Z,63.30
2023-03-15T02:56:38.390Z,61.99
2023-03-15T02:59:05.121Z,61.35
2023-03-15T03:01:31.848Z,61.02
2023-03-15T03:03:58.606Z,60.60
2023-03-15T03:06:25.047Z,59.67
2023-03-15T03:08:51.464Z,59.60
2023-03-15T03:11:17.918Z,59.54
2023-03-15T03:13:44.423Z,58.24
2023-03-15T03:16:11.417Z,60.84
2023-03-15T03:18:38.882Z,63.78
2023-03-15T03:21:07.221Z,65.10
2023-03-15T03:23:35.860Z,64.01
2023-03-15T03:26:03.595Z,62.96
2023-03-15T03:28:32.761Z,61.54
2023-03-15T03:30:59.779Z,60.74
2023-03-15T03:33:26.193Z,60.44
2023-03-15T03:35:53.658Z,59.90
2023-03-15T03:38:20.508Z,60.07
2023-03-15T03:40:46.992Z,59.78
2023-03-15T03:43:13.622Z,59.69
2023-03-15T03:45:40.096Z,58.50
2023-03-15T03:48:06.802Z,58.78
2023-03-15T03:50:33.228Z,60.32
2023-03-15T03:52:59.655Z,63.68
2023-03-15T03:55:26.135Z,65.46
2023-03-15T03:57:52.704Z,64.15
2023-03-15T04:00:20.954Z,63.22
2023-03-15T04:02:47.486Z,62.91
2023-03-15T04:05:14.182Z,62.79
2023-03-15T04:07:40.981Z,62.83
2023-03-15T04:10:08.810Z,62.70
2023-03-15T04:12:35.374Z,62.48
2023-03-15T04:15:02.822Z,62.81
2023-03-15T04:17:29.436Z,63.00
2023-03-15T04:19:55.876Z,63.02
2023-03-15T04:22:22.292Z,63.58
2023-03-15T04:24:50.057Z,63.52
2023-03-15T04:27:16.457Z,63.52
2023-03-15T04:29:43.278Z,63.28
2023-03-15T04:32:10.797Z,62.81
2023-03-15T04:34:38.342Z,62.49
2023-03-15T04:37:05.680Z,62.31
2023-03-15T04:39:32.304Z,62.15
2023-03-15T04:41:58.861Z,62.01
2023-03-15T04:44:26.916Z,61.56
2023-03-15T04:46:55.006Z,61.55
2023-03-15T04:49:21.592Z,61.12
2023-03-15T04:51:48.051Z,60.90
2023-03-15T04:54:14.516Z,60.61
2023-03-15T04:56:41.702Z,60.54
2023-03-15T04:59:10.035Z,60.70
2023-03-15T05:01:37.082Z,60.47
2023-03-15T05:04:03.899Z,60.52
2023-03-15T05:06:30.533Z,60.38
2023-03-15T05:08:56.954Z,60.07
2023-03-15T05:11:23.578Z,60.09
2023-03-15T05:13:50.001Z,60.13
2023-03-15T05:16:17.089Z,59.81
2023-03-15T05:18:44.696Z,60.00
2023-03-15T05:21:12.715Z,60.49
2023-03-15T05:23:40.926Z,60.33
2023-03-15T05:26:07.388Z,60.10
2023-03-15T05:28:33.802Z,60.49
2023-03-15T05:31:01.942Z,60.36
2023-03-15T05:33:28.598Z,60.21
2023-03-15T05:35:55.875Z,60.22
2023-03-15T05:38:25.997Z,59.85
2023-03-15T05:40:53.522Z,60.24
2023-03-15T05:43:21.192Z,60.20
2023-03-15T05:45:48.064Z,60.51
2023-03-15T05:48:16.106Z,60.22
2023-03-15T05:50:42.822Z,60.00
2023-03-15T05:53:10.046Z,59.72
2023-03-15T05:55:37.042Z,59.74
2023-03-15T05:58:04.465Z,59.72
2023-03-15T06:00:31.892Z,59.75
2023-03-15T06:02:58.847Z,59.89
2023-03-15T06:05:26.347Z,60.16
2023-03-15T06:07:52.713Z,60.07
2023-03-15T06:10:19.283Z,60.30
2023-03-15T06:12:45.882Z,60.19
2023-03-15T06:15:12.531Z,60.17
2023-03-15T06:17:38.928Z,60.32
2023-03-15T06:20:06.074Z,58.76
2023-03-15T06:22:32.662Z,58.96
2023-03-15T06:24:59.153Z,60.88
2023-03-15T06:27:25.582Z,65.06
2023-03-15T06:29:53.261Z,65.96
2023-03-15T06:32:19.968Z,63.18
2023-03-15T06:34:46.455Z,61.22
2023-03-15T06:37:14.725Z,60.06
2023-03-15T06:39:44.121Z,58.76
2023-03-15T06:42:13.116Z,58.04
2023-03-15T06:44:41.061Z,61.14
2023-03-15T06:47:10.159Z,63.88
2023-03-15T06:49:37.287Z,63.83
2023-03-15T06:52:05.887Z,62.59
2023-03-15T06:54:32.387Z,60.60
2023-03-15T06:56:59.546Z,58.82
2023-03-15T06:59:27.283Z,58.98
2023-03-15T07:01:56.125Z,60.89
2023-03-15T07:04:22.560Z,64.13
2023-03-15T07:06:50.884Z,64.10
2023-03-15T07:09:19.962Z,61.00
2023-03-15T07:11:46.439Z,59.23
2023-03-15T07:14:12.876Z,57.77
2023-03-15T07:16:39.300Z,59.95
2023-03-15T07:19:05.803Z,62.38
2023-03-15T07:21:32.378Z,64.12
2023-03-15T07:23:58.882Z,63.96
2023-03-15T07:26:25.428Z,61.81
2023-03-15T07:28:51.793Z,60.05
2023-03-15T07:31:18.319Z,58.94
2023-03-15T07:33:44.821Z,58.67
2023-03-15T07:36:11.464Z,60.34
2023-03-15T07:38:38.496Z,62.58
2023-03-15T07:41:06.862Z,63.30
2023-03-15T07:43:34.640Z,62.20
2023-03-15T07:46:01.242Z,59.02
2023-03-15T07:48:28.832Z,58.62
2023-03-15T07:50:56.185Z,60.27
2023-03-15T07:53:22.897Z,61.98
2023-03-15T07:55:49.633Z,64.32
2023-03-15T07:58:19.060Z,63.05
2023-03-15T08:00:47.693Z,60.79
2023-03-15T08:03:14.302Z,59.44
2023-03-15T08:05:40.757Z,56.91
2023-03-15T08:08:07.309Z,58.17
2023-03-15T08:10:33.771Z,60.42
2023-03-15T08:13:00.223Z,62.35
2023-03-15T08:15:27.663Z,63.67
2023-03-15T08:17:54.263Z,63.17
2023-03-15T08:20:21.781Z,62.26
2023-03-15T08:22:50.726Z,61.22
2023-03-15T08:25:22.855Z,60.09
2023-03-15T08:27:50.835Z,58.87
2023-03-15T08:30:21.430Z,56.96
2023-03-15T08:32:51.956Z,58.05
2023-03-15T08:35:21.378Z,60.03
2023-03-15T08:37:48.241Z,61.15
2023-03-15T08:40:18.443Z,61.37
2023-03-15T08:42:45.493Z,62.05
2023-03-15T08:45:11.998Z,63.94
2023-03-15T08:47:38.449Z,66.06
2023-03-15T08:50:10.353Z,59.87
2023-03-15T08:52:38.652Z,55.53
2023-03-15T08:55:06.383Z,55.38
2023-03-15T08:57:33.180Z,57.36
2023-03-15T09:00:05.864Z,57.96
2023-03-15T09:02:32.900Z,58.49
2023-03-15T09:04:59.473Z,59.50
2023-03-15T09:07:25.840Z,59.19
2023-03-15T09:09:53.952Z,59.33
2023-03-15T09:12:21.435Z,60.26
2023-03-15T09:14:47.881Z,60.03
2023-03-15T09:17:14.598Z,59.84
2023-03-15T09:19:41.096Z,60.16
2023-03-15T09:22:16.367Z,59.97
2023-03-15T09:24:43.472Z,59.95
2023-03-15T09:27:11.213Z,58.66
2023-03-15T09:29:37.524Z,57.59
2023-03-15T09:32:04.529Z,56.92
2023-03-15T09:34:39.892Z,55.80
2023-03-15T09:37:08.448Z,56.44
2023-03-15T09:39:34.898Z,57.41
2023-03-15T09:42:06.440Z,57.91
2023-03-15T09:44:44.297Z,57.80
2023-03-15T09:47:20.365Z,57.73
2023-03-15T09:50:26.204Z,57.30
2023-03-15T09:53:03.456Z,57.08
2023-03-15T09:55:30.031Z,56.82
2023-03-15T09:58:03.286Z,57.11
2023-03-15T10:00:52.535Z,57.32
2023-03-15T10:03:47.018Z,56.44
2023-03-15T10:06:23.752Z,56.58
2023-03-15T10:08:56.877Z,56.87
2023-03-15T10:11:39.348Z,56.43
2023-03-15T10:14:24.824Z,55.44
2023-03-15T10:16:52.060Z,54.66
2023-03-15T10:19:45.135Z,54.00
2023-03-15T10:22:14.212Z,52.72
2023-03-15T10:25:25.495Z,52.48
2023-03-15T10:28:14.789Z,52.03
2023-03-15T10:30:51.275Z,52.81
2023-03-15T10:33:32.668Z,53.23
2023-03-15T10:36:11.036Z,53.05
2023-03-15T10:38:41.499Z,53.22
2023-03-15T10:41:17.832Z,53.34
2023-03-15T10:44:04.166Z,53.24
2023-03-15T10:46:30.619Z,53.97
2023-03-15T10:49:15.967Z,54.71
2023-03-15T10:51:47.973Z,54.22
2023-03-15T10:54:21.429Z,51.94
2023-03-15T10:57:13.684Z,50.98
2023-03-15T11:00:11.089Z,50.57
2023-03-15T11:02:37.618Z,49.64
2023-03-15T11:05:16.487Z,47.91
2023-03-15T11:07:56.278Z,46.96
2023-03-15T11:10:26.706Z,46.98
2023-03-15T11:13:19.927Z,46.73
2023-03-15T11:16:14.404Z,46.06
2023-03-15T11:18:49.648Z,45.85
2023-03-15T11:21:19.399Z,46.01
2023-03-15T11:23:49.485Z,45.95
2023-03-15T11:26:32.369Z,45.30
2023-03-15T11:29:20.235Z,43.12
2023-03-15T11:31:48.389Z,40.79
2023-03-15T11:34:30.286Z,41.43
2023-03-15T11:37:09.112Z,42.16
2023-03-15T11:40:12.371Z,42.41
2023-03-15T11:43:05.325Z,42.27
2023-03-15T11:46:05.540Z,42.57
2023-03-15T11:48:58.871Z,42.06
2023-03-15T11:51:25.439Z,41.60
2023-03-15T11:54:17.376Z,41.38
2023-03-15T11:56:43.718Z,42.42
2023-03-15T11:59:13.045Z,43.15
2023-03-15T12:01:47.847Z,43.67
2023-03-15T12:04:33.132Z,44.15
2023-03-15T12:07:23.811Z,44.19
2023-03-15T12:09:55.672Z,43.90
2023-03-15T12:12:25.086Z,43.52
2023-03-15T12:15:13.535Z,43.32
2023-03-15T12:17:54.392Z,43.84
2023-03-15T12:20:38.284Z,44.10
2023-03-15T12:23:12.587Z,43.66
2023-03-15T12:25:55.768Z,43.55
2023-03-15T12:28:33.038Z,44.01
2023-03-15T12:31:04.095Z,43.34
2023-03-15T12:33:43.052Z,42.64
2023-03-15T12:36:18.582Z,42.69
2023-03-15T12:39:00.078Z,43.29
2023-03-15T12:41:43.410Z,43.57
2023-03-15T12:44:31.444Z,44.02
2023-03-15T12:47:01.888Z,43.08
2023-03-15T12:49:46.527Z,42.95
2023-03-15T12:52:33.913Z,42.75
2023-03-15T12:55:15.587Z,42.70
2023-03-15T12:57:53.528Z,42.62
2023-03-15T13:00:26.732Z,42.80
2023-03-15T13:03:16.032Z,42.19
2023-03-15T13:06:13.964Z,41.63
2023-03-15T13:09:35.469Z,41.29
2023-03-15T13:12:21.279Z,40.85
2023-03-15T13:15:14.200Z,40.88
2023-03-15T13:17:51.515Z,40.73
2023-03-15T13:20:45.892Z,41.62
2023-03-15T13:23:27.023Z,42.30
2023-03-15T13:26:22.827Z,41.71
2023-03-15T13:29:00.405Z,40.49
2023-03-15T13:31:31.467Z,40.10
2023-03-15T13:34:20.068Z,40.28
2023-03-15T13:36:54.408Z,40.64
2023-03-15T13:39:27.381Z,41.18
2023-03-15T13:42:23.179Z,41.66
2023-03-15T13:45:22.665Z,40.77
2023-03-15T13:47:49.307Z,39.81
2023-03-15T13:50:20.594Z,39.66
2023-03-15T13:52:48.722Z,38.85
2023-03-15T13:55:21.983Z,38.26
2023-03-15T13:57:59.456Z,37.59
2023-03-15T14:00:26.986Z,37.07
2023-03-15T14:03:00.612Z,38.06
2023-03-15T14:05:31.784Z,37.21
2023-03-15T14:08:14.824Z,37.45
2023-03-15T14:10:41.402Z,38.23
2023-03-15T14:13:25.382Z,38.71
2023-03-15T14:16:01.244Z,39.38
2023-03-15T14:18:38.160Z,39.80
2023-03-15T14:21:19.878Z,38.98
2023-03-15T14:23:49.053Z,39.13
2023-03-15T14:26:26.901Z,38.34
2023-03-15T14:29:02.318Z,38.77
2023-03-15T14:31:39.185Z,38.14
2023-03-15T14:34:17.926Z,38.45
2023-03-15T14:36:46.301Z,38.68
2023-03-15T14:39:30.980Z,38.97
2023-03-15T14:41:57.403Z,39.95
2023-03-15T14:44:23.877Z,41.21
2023-03-15T14:46:50.869Z,41.59
2023-03-15T14:49:27.037Z,41.64
2023-03-15T14:52:00.829Z,41.18
2023-03-15T14:54:31.696Z,39.90
2023-03-15T14:56:58.290Z,39.76
2023-03-15T14:59:25.072Z,40.11
2023-03-15T15:01:58.786Z,40.30
2023-03-15T15:04:33.863Z,40.62
2023-03-15T15:07:02.377Z,41.06
2023-03-15T15:09:30.422Z,41.35
2023-03-15T15:11:56.840Z,41.16
2023-03-15T15:14:23.245Z,40.88
2023-03-15T15:16:51.322Z,41.00
2023-03-15T15:19:17.976Z,41.30
2023-03-15T15:21:44.621Z,41.96
2023-03-15T15:24:15.952Z,42.34
2023-03-15T15:26:43.546Z,42.54
2023-03-15T15:29:14.198Z,42.68
2023-03-15T15:31:41.896Z,42.47
2023-03-15T15:34:10.516Z,42.02
2023-03-15T15:36:43.342Z,42.07
2023-03-15T15:39:26.951Z,41.13
2023-03-15T15:41:53.456Z,40.92
2023-03-15T15:44:24.269Z,40.75
2023-03-15T15:46:52.276Z,41.04
2023-03-15T15:49:19.240Z,41.32
2023-03-15T15:51:50.712Z,41.40
2023-03-15T15:54:25.912Z,41.61
2023-03-15T15:56:58.027Z,41.93
2023-03-15T15:59:25.163Z,42.39
2023-03-15T16:02:00.718Z,42.05
2023-03-15T16:04:29.390Z,41.49
2023-03-15T16:07:00.896Z,42.03
2023-03-15T16:09:30.139Z,42.68
2023-03-15T16:11:57.806Z,43.57
2023-03-15T16:14:24.389Z,44.29
2023-03-15T16:16:50.857Z,44.87
2023-03-15T16:19:17.359Z,45.48
2023-03-15T16:21:48.364Z,46.64
2023-03-15T16:24:30.148Z,47.28
2023-03-15T16:27:03.948Z,47.82
2023-03-15T16:29:47.914Z,48.89
2023-03-15T16:32:43.036Z,49.68
2023-03-15T16:35:16.126Z,50.27
2023-03-15T16:37:45.088Z,51.51
2023-03-15T16:40:22.489Z,52.54
2023-03-15T16:42:49.999Z,52.79
2023-03-15T16:45:17.344Z,53.80
2023-03-15T16:47:43.920Z,54.47
2023-03-15T16:50:11.880Z,54.79
2023-03-15T16:52:41.444Z,54.98
2023-03-15T16:55:17.960Z,55.71
2023-03-15T16:57:44.528Z,55.68
2023-03-15T17:00:16.475Z,56.18
2023-03-15T17:02:47.297Z,56.42
2023-03-15T17:05:17.015Z,57.18
2023-03-15T17:07:46.048Z,57.05
2023-03-15T17:10:22.598Z,56.99
2023-03-15T17:12:52.731Z,57.18
2023-03-15T17:15:26.062Z,57.75
2023-03-15T17:17:57.339Z,57.58
2023-03-15T17:20:26.738Z,58.25
2023-03-15T17:22:58.809Z,58.70
2023-03-15T17:25:26.090Z,58.60
2023-03-15T17:27:52.779Z,59.56
2023-03-15T17:30:27.798Z,59.90
2023-03-15T17:32:55.584Z,63.05
2023-03-15T17:35:29.097Z,71.12
2023-03-15T17:37:56.419Z,69.57
2023-03-15T17:40:30.390Z,65.23
2023-03-15T17:43:00.806Z,58.61
2023-03-15T17:45:31.368Z,52.42
2023-03-15T17:47:59.103Z,52.07
2023-03-15T17:50:30.598Z,52.68
2023-03-15T17:53:14.942Z,53.61
2023-03-15T17:55:42.460Z,54.03
2023-03-15T17:58:16.266Z,55.31
2023-03-15T18:00:43.207Z,55.93
2023-03-15T18:03:12.804Z,56.66
2023-03-15T18:05:40.139Z,57.00
2023-03-15T18:08:17.898Z,57.66
2023-03-15T18:10:47.289Z,57.93
2023-03-15T18:13:18.901Z,58.77
2023-03-15T18:15:48.595Z,59.22
2023-03-15T18:18:15.803Z,59.78
2023-03-15T18:20:42.648Z,60.33
2023-03-15T18:23:13.839Z,64.52
2023-03-15T18:25:41.815Z,69.56
2023-03-15T18:28:08.534Z,67.05
2023-03-15T18:30:41.099Z,63.05
2023-03-15T18:33:15.957Z,57.45
2023-03-15T18:35:42.990Z,53.57
2023-03-15T18:38:10.473Z,53.65
2023-03-15T18:40:39.623Z,54.33
2023-03-15T18:43:06.291Z,55.15
2023-03-15T18:45:35.413Z,55.85
2023-03-15T18:48:03.804Z,56.51
2023-03-15T18:50:31.343Z,57.54
2023-03-15T18:52:58.718Z,58.26
2023-03-15T18:55:26.149Z,59.11
2023-03-15T18:57:54.733Z,59.87
2023-03-15T19:00:27.699Z,63.63
2023-03-15T19:03:01.126Z,68.71
2023-03-15T19:05:31.681Z,67.03
2023-03-15T19:07:58.674Z,64.33
2023-03-15T19:10:26.770Z,58.11
2023-03-15T19:12:53.444Z,53.61
2023-03-15T19:15:23.057Z,53.25
2023-03-15T19:17:53.835Z,53.78
2023-03-15T19:20:23.104Z,54.65
2023-03-15T19:22:52.982Z,55.25
2023-03-15T19:25:21.169Z,56.48
2023-03-15T19:27:48.770Z,57.12
2023-03-15T19:30:22.308Z,58.41
2023-03-15T19:32:51.751Z,59.05
2023-03-15T19:35:20.195Z,59.57
2023-03-15T19:37:48.321Z,60.29
2023-03-15T19:40:16.459Z,64.35
2023-03-15T19:42:44.087Z,68.87
2023-03-15T19:45:12.617Z,67.35
2023-03-15T19:47:39.700Z,64.26
2023-03-15T19:50:13.665Z,58.55
2023-03-15T19:52:45.415Z,54.27
2023-03-15T19:55:19.629Z,54.20
2023-03-15T19:57:50.240Z,54.99
2023-03-15T20:00:22.680Z,55.79
2023-03-15T20:02:49.571Z,56.79
2023-03-15T20:05:19.846Z,57.66
2023-03-15T20:07:50.009Z,58.42
2023-03-15T20:10:23.260Z,59.09
2023-03-15T20:12:50.248Z,59.86
2023-03-15T20:15:21.251Z,63.63
2023-03-15T20:17:48.073Z,69.09
2023-03-15T20:20:15.008Z,67.44
2023-03-15T20:22:44.871Z,64.04
2023-03-15T20:25:18.083Z,61.95
2023-03-15T20:27:44.797Z,58.26
2023-03-15T20:30:15.141Z,55.43
2023-03-15T20:32:42.626Z,55.55
2023-03-15T20:35:10.314Z,56.24
2023-03-15T20:37:40.173Z,57.10
2023-03-15T20:40:13.048Z,57.87
2023-03-15T20:42:42.513Z,58.40
2023-03-15T20:45:12.031Z,59.29
2023-03-15T20:47:39.444Z,60.00
2023-03-15T20:50:09.852Z,64.13
2023-03-15T20:52:36.520Z,69.00
2023-03-15T20:55:05.228Z,66.87
2023-03-15T20:57:31.952Z,64.10
2023-03-15T20:59:59.023Z,61.38
2023-03-15T21:02:25.538Z,57.05
2023-03-15T21:04:52.139Z,53.67
2023-03-15T21:07:18.641Z,53.85
2023-03-15T21:09:45.948Z,54.57
2023-03-15T21:12:12.313Z,55.44
2023-03-15T21:14:39.288Z,56.31
2023-03-15T21:17:06.002Z,57.20
2023-03-15T21:19:32.375Z,58.06
2023-03-15T21:22:00.397Z,58.70
2023-03-15T21:24:40.647Z,59.43
2023-03-15T21:27:10.862Z,59.57
2023-03-15T21:29:39.600Z,63.71
2023-03-15T21:32:06.940Z,69.31
2023-03-15T21:34:33.702Z,70.15
2023-03-15T21:37:00.140Z,65.83
2023-03-15T21:39:26.605Z,56.68
2023-03-15T21:41:53.042Z,52.77
2023-03-15T21:44:19.889Z,53.12
2023-03-15T21:46:46.443Z,54.01
2023-03-15T21:49:13.277Z,55.10
2023-03-15T21:51:45.439Z,56.09
2023-03-15T21:54:13.314Z,56.82
2023-03-15T21:56:40.345Z,57.67
2023-03-15T21:59:07.292Z,58.48
2023-03-15T22:01:34.146Z,59.28
2023-03-15T22:04:00.688Z,60.12
2023-03-15T22:06:27.606Z,63.92
2023-03-15T22:08:54.028Z,70.13
2023-03-15T22:11:22.237Z,71.54
2023-03-15T22:13:48.983Z,63.50
2023-03-15T22:16:15.525Z,55.97
2023-03-15T22:18:41.918Z,53.13
2023-03-15T22:21:08.539Z,53.75
2023-03-15T22:23:35.031Z,54.86
2023-03-15T22:26:01.637Z,55.78
2023-03-15T22:28:28.146Z,56.62
2023-03-15T22:30:55.596Z,57.51
2023-03-15T22:33:22.446Z,58.42
2023-03-15T22:35:57.438Z,59.24
2023-03-15T22:38:25.818Z,62.79
2023-03-15T22:41:02.164Z,67.89
2023-03-15T22:43:29.850Z,67.19
2023-03-15T22:45:56.243Z,64.62
2023-03-15T22:48:22.745Z,62.31
2023-03-15T22:51:01.729Z,60.72
2023-03-15T22:53:33.037Z,57.21
2023-03-15T22:56:06.548Z,54.89
2023-03-15T22:58:34.207Z,55.28
2023-03-15T23:01:01.333Z,56.43
2023-03-15T23:03:32.256Z,57.76
2023-03-15T23:06:23.288Z,59.20
2023-03-15T23:08:50.552Z,63.39
2023-03-15T23:11:19.037Z,68.01
2023-03-15T23:13:51.461Z,67.88
2023-03-15T23:16:23.796Z,67.17
2023-03-15T23:18:51.362Z,65.41
2023-03-15T23:21:18.044Z,63.87
2023-03-15T23:23:44.510Z,63.19
2023-03-15T23:26:19.861Z,61.28
2023-03-15T23:28:46.297Z,60.69
2023-03-15T23:31:12.715Z,60.93
2023-03-15T23:33:39.263Z,59.51
2023-03-15T23:36:06.538Z,55.61
2023-03-15T23:38:33.896Z,54.45
2023-03-15T23:41:01.621Z,55.51
2023-03-15T23:43:28.257Z,57.20
2023-03-15T23:46:02.903Z,58.48
2023-03-15T23:48:34.026Z,60.31
2023-03-15T23:51:04.337Z,64.03
2023-03-15T23:53:31.934Z,69.19
2023-03-15T23:55:58.375Z,69.05
2023-03-15T23:58:25.256Z,66.87
